PRC weather

Prescott Regional Airport - Ernest A. Love Field
Prescott, Arizona, United States

Public forecast

Using degrees Fahrenheit for public forecast. Weather courtesy of forecast.io.

Current aviation weather report (METAR) for Prescott Regional Airport - Ernest A. Love Field

Retrieved 2019/10/15 08:53 UTC (57 minutes ago):

KPRC 150853Z AUTO 18007KT 10SM CLR 08/03 A3015 RMK AO2 SLP154 T00780033 53006

Aviation forecast (TAF) for Prescott Regional Airport - Ernest A. Love Field

Retrieved 2019/10/15 06:30 UTC (3 hours ago):

TAF KPRC 150529Z 1506/1606 VRB05KT P6SM SKC